Time;durP1;ratioP1;P1;durP2;ratioP2;P2;SDS_P1;SDS_P2;PMS_P1;PMS_P2;Temp;Humidity;BMP_temperature;BMP_pressure;BME280_temperature;BME280_humidity;BME280_pressure;Samples;Min_cycle;Max_cycle;Signal;HPM_P1;HPM_P2
2022/06/08 00:00:22;;;;;;;3.42;2.30;;;;;;;23.35;46.64;100731.72;5042014;28;20488;-79
2022/06/08 00:02:55;;;;;;;3.75;2.47;;;;;;;23.34;46.35;100730.00;5050268;28;20064;-79
2022/06/08 00:05:22;;;;;;;3.95;2.47;;;;;;;23.29;46.43;100729.72;5049824;28;20049;-79
2022/06/08 00:07:48;;;;;;;4.38;2.22;;;;;;;23.29;46.21;100729.72;5050679;28;20040;-79
2022/06/08 00:10:15;;;;;;;4.75;2.47;;;;;;;23.28;46.26;100719.69;5042236;28;20084;-79
2022/06/08 00:12:42;;;;;;;3.97;2.35;;;;;;;23.27;46.34;100723.50;5049856;28;20079;-79
2022/06/08 00:15:10;;;;;;;3.60;1.98;;;;;;;23.28;46.86;100724.34;5052173;28;20052;-79
2022/06/08 00:17:37;;;;;;;4.70;2.80;;;;;;;23.26;46.27;100730.06;5027204;28;20048;-79
2022/06/08 00:20:06;;;;;;;3.70;2.55;;;;;;;23.26;46.52;100720.91;5055910;28;20558;-79
2022/06/08 00:22:41;;;;;;;3.58;2.25;;;;;;;23.27;47.06;100712.41;5041582;28;20118;-79
2022/06/08 00:25:09;;;;;;;4.03;2.22;;;;;;;23.24;46.24;100718.31;5038882;28;20057;-79
2022/06/08 00:27:36;;;;;;;3.60;2.30;;;;;;;23.23;46.68;100711.06;5019524;28;20087;-79
2022/06/08 00:30:04;;;;;;;3.53;2.20;;;;;;;23.24;46.84;100711.91;5058202;28;20779;-79
2022/06/08 00:32:31;;;;;;;4.53;2.67;;;;;;;23.22;46.78;100716.81;5042768;28;20081;-79
2022/06/08 00:34:59;;;;;;;4.82;2.58;;;;;;;23.22;46.66;100716.81;5045890;28;20056;-79
2022/06/08 00:37:25;;;;;;;5.03;2.50;;;;;;;23.22;46.92;100711.25;5049439;28;20051;-79
2022/06/08 00:39:52;;;;;;;4.75;2.40;;;;;;;23.21;46.72;100706.78;5044137;28;20044;-79
2022/06/08 00:42:20;;;;;;;3.60;2.30;;;;;;;23.21;46.57;100710.41;5046292;28;20049;-79
2022/06/08 00:44:54;;;;;;;4.55;2.28;;;;;;;23.20;46.99;100705.91;5036353;28;20533;-79
2022/06/08 00:47:33;;;;;;;3.60;2.33;;;;;;;23.21;47.00;100696.56;5047184;28;20081;-79
2022/06/08 00:50:11;;;;;;;4.70;2.40;;;;;;;23.21;47.21;100687.38;5038587;28;20068;-79
2022/06/08 00:52:38;;;;;;;4.57;2.60;;;;;;;23.18;46.64;100690.50;5047252;28;20095;-79
2022/06/08 00:55:09;;;;;;;4.75;2.55;;;;;;;23.19;47.16;100682.03;5047900;28;20609;-79
2022/06/08 00:57:39;;;;;;;4.85;2.53;;;;;;;23.19;46.63;100687.56;5049128;28;20696;-79
2022/06/08 01:00:17;;;;;;;4.13;2.58;;;;;;;23.17;46.76;100694.31;5047943;28;20421;-79
2022/06/08 01:02:44;;;;;;;3.40;2.25;;;;;;;23.15;46.84;100686.19;5045774;28;20055;-79
2022/06/08 01:05:40;;;;;;;4.47;2.72;;;;;;;23.13;47.31;100675.34;5052461;28;20471;-79
2022/06/08 01:08:27;;;;;;;3.40;2.25;;;;;;;23.15;47.19;100683.44;5033525;28;20132;-79
2022/06/08 01:10:57;;;;;;;4.15;2.50;;;;;;;23.14;47.10;100670.66;5044658;28;20075;-79
2022/06/08 01:13:28;;;;;;;3.88;2.25;;;;;;;23.14;47.04;100668.72;5054672;28;20539;-79
2022/06/08 01:15:54;;;;;;;4.07;2.22;;;;;;;23.10;47.10;100664.63;5043376;28;20084;-79
2022/06/08 01:18:21;;;;;;;3.42;2.28;;;;;;;23.11;46.59;100665.47;5046689;28;20045;-79
2022/06/08 01:20:51;;;;;;;3.92;2.20;;;;;;;23.11;46.76;100658.03;5046682;28;20073;-79
2022/06/08 01:23:18;;;;;;;5.78;2.30;;;;;;;23.08;46.72;100658.41;5048432;28;20138;-79
2022/06/08 01:26:14;;;;;;;4.18;2.15;;;;;;;23.08;46.98;100650.09;5044655;28;20099;-79
2022/06/08 01:28:54;;;;;;;3.88;2.47;;;;;;;23.08;47.42;100646.47;5047366;28;20132;-79
2022/06/08 01:31:44;;;;;;;4.60;2.50;;;;;;;23.06;47.18;100645.81;5043771;28;20087;-79
2022/06/08 01:34:25;;;;;;;3.63;2.20;;;;;;;23.03;47.19;100638.75;5047525;28;20083;-79
2022/06/08 01:36:58;;;;;;;3.85;2.50;;;;;;;22.98;47.11;100637.56;5043672;28;20638;-79
2022/06/08 01:39:25;;;;;;;3.22;1.63;;;;;;;22.94;46.94;100642.63;5041567;28;20072;-79
2022/06/08 01:42:18;;;;;;;3.10;2.10;;;;;;;22.98;47.52;100640.31;5044957;28;20084;-79
2022/06/08 01:48:08;;;;;;;;;;;;;;;22.62;47.46;100631.81;5036926;28;20065;-79
2022/06/08 01:50:55;;;;;;;3.65;1.90;;;;;;;22.86;47.55;100625.22;5007106;28;19960;-79
2022/06/08 01:53:43;;;;;;;2.85;1.85;;;;;;;22.88;47.82;100624.00;4987932;28;20049;-79
2022/06/08 01:56:40;;;;;;;3.45;2.03;;;;;;;22.86;47.22;100616.94;4991016;28;20056;-79
2022/06/08 01:59:23;;;;;;;3.45;2.05;;;;;;;22.84;47.36;100619.88;5010103;28;20045;-80
2022/06/08 02:01:54;;;;;;;;;;;;;;;22.56;47.45;100621.50;5013727;28;20511;-80
2022/06/08 02:04:37;;;;;;;2.35;1.50;;;;;;;22.81;47.37;100619.41;5006863;28;20429;-79
2022/06/08 02:07:35;;;;;;;3.57;2.03;;;;;;;22.74;47.53;100614.59;4993131;28;21993;-79
2022/06/08 02:10:16;;;;;;;2.88;1.75;;;;;;;22.81;47.37;100617.50;4995729;28;20134;-79
2022/06/08 02:12:51;;;;;;;3.35;1.90;;;;;;;22.81;47.43;100622.19;5010820;28;20394;-79
2022/06/08 02:15:25;;;;;;;4.45;2.05;;;;;;;22.81;47.32;100616.66;5008003;28;20528;-79
2022/06/08 02:17:55;;;;;;;3.35;1.85;;;;;;;22.77;47.19;100611.47;5011477;28;20120;-79
2022/06/08 02:20:46;;;;;;;5.38;2.28;;;;;;;22.77;47.69;100603.16;5010576;28;20121;-80
2022/06/08 02:23:23;;;;;;;3.83;2.08;;;;;;;22.76;47.29;100606.97;5003295;28;20057;-79
2022/06/08 02:26:32;;;;;;;3.30;2.08;;;;;;;22.69;47.37;100597.69;4997519;28;20084;-79
2022/06/08 02:29:06;;;;;;;3.63;2.17;;;;;;;22.69;46.94;100600.44;5025369;28;20046;-79
2022/06/08 02:31:40;;;;;;;4.65;2.30;;;;;;;22.69;46.83;100599.59;5042522;28;20051;-80
2022/06/08 02:34:29;;;;;;;3.83;2.50;;;;;;;22.68;47.26;100598.72;5051905;28;20143;-80
2022/06/08 02:37:17;;;;;;;3.80;2.40;;;;;;;22.64;47.28;100594.63;5047328;28;20099;-80
2022/06/08 02:40:09;;;;;;;4.20;2.38;;;;;;;22.60;47.06;100598.78;5036957;28;20065;-79
2022/06/08 02:42:54;;;;;;;4.43;2.45;;;;;;;22.61;47.43;100591.34;5049116;28;20508;-79
2022/06/08 02:45:39;;;;;;;4.25;2.50;;;;;;;22.59;47.20;100588.78;5046924;28;20124;-80
2022/06/08 02:48:12;;;;;;;4.25;2.58;;;;;;;22.55;46.96;100583.81;5036088;28;20140;-79
2022/06/08 02:50:56;;;;;;;3.95;2.50;;;;;;;22.52;47.67;100585.03;5046900;28;20124;-79
2022/06/08 02:53:23;;;;;;;4.53;2.55;;;;;;;22.48;47.04;100580.06;5042406;28;20049;-79
2022/06/08 02:56:04;;;;;;;4.80;2.35;;;;;;;22.48;47.15;100580.06;5036359;28;20124;-79
2022/06/08 02:58:57;;;;;;;3.25;2.47;;;;;;;22.46;47.64;100571.94;5050332;28;20175;-79
2022/06/08 03:01:34;;;;;;;;;;;;;;;22.14;48.07;100563.91;5044556;28;20073;-79
2022/06/08 03:04:09;;;;;;;3.60;2.20;;;;;;;22.37;47.38;100562.00;5048050;28;19921;-79
2022/06/08 03:06:42;;;;;;;4.95;2.30;;;;;;;22.37;47.07;100562.00;5049413;28;20132;-80
2022/06/08 03:09:13;;;;;;;3.50;2.35;;;;;;;22.34;46.92;100556.81;5047158;28;20056;-79
2022/06/08 03:11:45;;;;;;;4.78;2.50;;;;;;;22.32;47.32;100556.16;5048973;28;20076;-79
2022/06/08 03:14:16;;;;;;;3.90;2.30;;;;;;;22.27;47.32;100551.19;5044578;28;20547;-79
2022/06/08 03:16:58;;;;;;;4.22;2.30;;;;;;;22.26;47.69;100549.47;5051342;28;20077;-79
2022/06/08 03:19:27;;;;;;;4.10;2.50;;;;;;;22.21;46.99;100553.84;5046046;28;20550;-79
2022/06/08 03:21:54;;;;;;;4.78;2.25;;;;;;;22.19;47.21;100553.16;5048906;28;20045;-79
2022/06/08 03:24:22;;;;;;;3.90;2.58;;;;;;;22.18;47.08;100555.06;5052933;28;20057;-79
2022/06/08 03:26:54;;;;;;;3.28;2.28;;;;;;;22.18;47.58;100560.59;5054746;28;20052;-79
2022/06/08 03:29:21;;;;;;;3.78;2.38;;;;;;;22.14;47.37;100563.91;5053284;28;20045;-79
2022/06/08 03:31:48;;;;;;;4.75;2.40;;;;;;;22.13;47.07;100564.97;5042127;28;20510;-80
2022/06/08 03:34:14;;;;;;;4.18;2.28;;;;;;;22.11;47.42;100567.91;5043616;28;20140;-79
2022/06/08 03:36:41;;;;;;;3.30;2.03;;;;;;;22.10;47.35;100568.94;5054222;28;20110;-80
2022/06/08 03:39:09;;;;;;;3.53;2.38;;;;;;;22.11;47.77;100569.81;5048001;28;20053;-79
2022/06/08 03:41:35;;;;;;;4.60;2.30;;;;;;;22.10;47.55;100563.41;5045401;28;20053;-79
2022/06/08 03:44:03;;;;;;;3.90;2.30;;;;;;;22.13;47.73;100576.03;5047435;28;20077;-79
2022/06/08 03:46:36;;;;;;;3.65;2.10;;;;;;;22.15;48.09;100565.66;5045510;28;20132;-79
2022/06/08 03:49:04;;;;;;;3.40;2.25;;;;;;;22.13;48.00;100567.72;5037538;28;20045;-79
2022/06/08 03:51:34;;;;;;;5.03;2.40;;;;;;;22.14;47.43;100559.25;5044510;28;20103;-79
2022/06/08 03:54:18;;;;;;;3.85;2.08;;;;;;;22.17;47.67;100564.41;5036197;28;20057;-79
2022/06/08 03:56:49;;;;;;;3.75;2.10;;;;;;;22.18;47.53;100562.50;5046169;28;20069;-79
2022/06/08 03:59:16;;;;;;;4.13;2.20;;;;;;;22.18;47.24;100570.78;5040100;28;20099;-79
2022/06/08 04:01:44;;;;;;;4.15;2.20;;;;;;;22.18;47.41;100560.59;5033049;28;20045;-79
2022/06/08 04:04:11;;;;;;;3.10;1.90;;;;;;;22.18;47.58;100556.97;5051237;28;20057;-79
2022/06/08 04:06:38;;;;;;;3.63;2.22;;;;;;;22.18;47.72;100559.72;5048139;28;20052;-79
2022/06/08 04:09:04;;;;;;;3.78;2.30;;;;;;;22.18;47.50;100556.97;5047385;28;20067;-79
2022/06/08 04:11:31;;;;;;;4.03;2.15;;;;;;;22.18;47.05;100555.06;5050554;28;20053;-79
2022/06/08 04:14:00;;;;;;;3.53;1.92;;;;;;;22.19;47.43;100555.91;5044525;28;20613;-79
2022/06/08 04:16:27;;;;;;;3.28;2.00;;;;;;;22.17;47.46;100553.34;5040572;28;20572;-79
2022/06/08 04:18:55;;;;;;;3.28;2.10;;;;;;;22.16;47.04;100554.38;5048597;28;20511;-79
2022/06/08 04:21:24;;;;;;;4.43;2.20;;;;;;;22.18;47.15;100557.81;5047035;28;20128;-79
2022/06/08 04:23:51;;;;;;;3.83;1.95;;;;;;;22.14;47.53;100563.91;5040904;28;20045;-79
2022/06/08 04:26:22;;;;;;;3.00;1.98;;;;;;;22.14;47.17;100572.22;5051489;28;20128;-80
2022/06/08 04:28:49;;;;;;;3.47;1.95;;;;;;;22.11;47.10;100569.81;5044467;28;20076;-79
2022/06/08 04:31:16;;;;;;;2.72;1.98;;;;;;;22.11;47.32;100562.38;5041972;28;20053;-79
2022/06/08 04:33:43;;;;;;;3.85;1.80;;;;;;;22.12;47.26;100568.75;5048240;28;20098;-79
2022/06/08 04:36:12;;;;;;;3.80;1.90;;;;;;;22.11;47.14;100570.66;5048594;28;20423;-79
2022/06/08 04:38:39;;;;;;;4.20;2.10;;;;;;;22.10;47.64;100563.41;5047594;28;20045;-79
2022/06/08 04:41:07;;;;;;;2.97;1.88;;;;;;;22.10;47.46;100563.41;5039848;28;20495;-79
2022/06/08 04:43:34;;;;;;;3.35;1.98;;;;;;;22.09;47.64;100560.81;5048296;28;20071;-79
2022/06/08 04:46:00;;;;;;;3.13;1.92;;;;;;;22.10;47.77;100563.41;5052560;28;20059;-79
2022/06/08 04:48:30;;;;;;;3.15;2.00;;;;;;;22.10;47.38;100559.78;5038636;28;20041;-79
2022/06/08 04:50:56;;;;;;;3.35;2.00;;;;;;;22.11;47.47;100561.50;5055356;28;20065;-79
2022/06/08 04:53:23;;;;;;;3.70;2.20;;;;;;;22.09;47.35;100564.47;5049765;28;20119;-79
2022/06/08 04:55:55;;;;;;;5.38;1.98;;;;;;;22.12;47.33;100553.03;5052120;28;20076;-80
2022/06/08 04:58:26;;;;;;;4.30;1.95;;;;;;;22.07;46.97;100549.97;5047652;28;20057;-79
2022/06/08 05:00:54;;;;;;;3.00;1.88;;;;;;;22.07;46.87;100551.88;5036834;28;20124;-79
2022/06/08 05:03:21;;;;;;;3.70;1.95;;;;;;;22.05;47.45;100542.91;5040641;28;20470;-79
2022/06/08 05:05:47;;;;;;;3.17;2.00;;;;;;;22.04;47.54;100539.28;5045786;28;20543;-79
2022/06/08 05:08:20;;;;;;;3.60;1.80;;;;;;;22.05;47.47;100535.47;5051185;28;20543;-80
2022/06/08 05:10:49;;;;;;;2.67;1.90;;;;;;;22.05;47.66;100535.47;5044169;28;20120;-79
2022/06/08 05:13:17;;;;;;;3.22;1.98;;;;;;;22.11;47.77;100529.19;5045518;28;20492;-80
2022/06/08 05:15:45;;;;;;;3.28;1.90;;;;;;;22.15;48.17;100524.16;5046580;28;20088;-80
2022/06/08 05:18:14;;;;;;;2.75;1.67;;;;;;;22.19;48.04;100523.59;5055021;28;20045;-79
2022/06/08 05:20:43;;;;;;;3.33;2.05;;;;;;;22.25;48.11;100519.22;5048183;28;20372;-78
2022/06/08 05:23:19;;;;;;;3.88;1.95;;;;;;;22.33;48.15;100516.38;5045957;28;20128;-78
2022/06/08 05:25:46;;;;;;;3.80;1.75;;;;;;;22.36;47.98;100511.34;5048985;28;20451;-79
2022/06/08 05:28:13;;;;;;;3.10;1.80;;;;;;;22.48;48.33;100521.97;5044412;28;20476;-77
2022/06/08 05:30:43;;;;;;;3.05;1.65;;;;;;;22.57;48.25;100512.50;5038570;28;20106;-77
2022/06/08 05:33:11;;;;;;;2.83;1.98;;;;;;;22.65;47.75;100510.53;5041577;28;20060;-79
2022/06/08 05:35:39;;;;;;;3.05;1.77;;;;;;;22.74;47.79;100509.41;5040438;28;20480;-77
2022/06/08 05:38:09;;;;;;;3.17;1.52;;;;;;;22.83;47.18;100510.19;5053193;28;20083;-78
2022/06/08 05:40:37;;;;;;;3.45;1.90;;;;;;;22.90;47.23;100497.31;5055046;28;20049;-77
2022/06/08 05:43:05;;;;;;;3.15;1.70;;;;;;;22.98;47.30;100491.66;5048136;28;20050;-78
2022/06/08 05:45:36;;;;;;;2.60;1.60;;;;;;;23.05;46.64;100489.88;5046223;28;20059;-78
2022/06/08 05:48:04;;;;;;;3.13;1.70;;;;;;;23.09;46.83;100501.41;5048266;28;20049;-79
2022/06/08 05:50:31;;;;;;;2.70;1.77;;;;;;;23.13;46.72;100500.84;5053305;28;20049;-79
2022/06/08 05:52:58;;;;;;;3.33;1.80;;;;;;;23.17;46.05;100484.69;5046668;28;20045;-80
2022/06/08 05:55:26;;;;;;;2.92;1.65;;;;;;;23.22;46.17;100484.13;5035245;28;20084;-79
2022/06/08 05:57:53;;;;;;;2.70;1.50;;;;;;;23.24;46.33;100480.09;5045964;28;20092;-77
2022/06/08 06:00:23;;;;;;;2.42;1.48;;;;;;;23.28;45.85;100475.91;5049592;28;20095;-79
2022/06/08 06:02:50;;;;;;;2.20;1.50;;;;;;;23.28;45.95;100470.34;5046025;28;20503;-79
2022/06/08 06:05:22;;;;;;;3.45;1.50;;;;;;;23.32;45.61;100468.03;5046571;28;20471;-79
2022/06/08 06:07:50;;;;;;;3.45;1.63;;;;;;;23.31;45.89;100466.31;5049860;28;20065;-80
2022/06/08 06:10:17;;;;;;;3.05;1.63;;;;;;;23.32;45.37;100465.25;5048957;28;20053;-80
2022/06/08 06:12:44;;;;;;;3.70;1.48;;;;;;;23.34;45.49;100466.78;5051084;28;20103;-80
2022/06/08 06:15:13;;;;;;;3.28;1.60;;;;;;;23.37;45.48;100471.09;5040067;28;20060;-81
2022/06/08 06:17:39;;;;;;;2.50;1.40;;;;;;;23.35;45.44;100467.66;5045940;28;20052;-81
2022/06/08 06:20:06;;;;;;;2.47;1.38;;;;;;;23.37;45.46;100473.88;5045727;28;20067;-80
2022/06/08 06:22:35;;;;;;;2.58;1.50;;;;;;;23.37;45.13;100468.31;5049155;28;20056;-81
2022/06/08 06:25:05;;;;;;;2.08;1.40;;;;;;;23.41;45.14;100473.28;5052744;28;20075;-80
2022/06/08 06:27:31;;;;;;;2.20;1.10;;;;;;;23.40;45.54;100467.91;5050940;28;20127;-80
2022/06/08 06:29:58;;;;;;;2.65;1.40;;;;;;;23.39;44.86;100469.81;5049154;28;20084;-80
2022/06/08 06:32:28;;;;;;;3.03;1.40;;;;;;;23.43;44.83;100470.31;5039342;28;20099;-80
2022/06/08 06:34:56;;;;;;;2.83;1.48;;;;;;;23.41;45.21;100458.56;5044224;28;20479;-81
2022/06/08 06:37:23;;;;;;;2.03;1.20;;;;;;;23.40;45.16;100456.84;5047735;28;20041;-79
2022/06/08 06:39:49;;;;;;;3.42;1.30;;;;;;;23.40;45.29;100454.94;5050426;28;20100;-80
2022/06/08 06:42:19;;;;;;;2.45;1.35;;;;;;;23.41;44.70;100451.09;5043013;28;20080;-81
2022/06/08 06:44:46;;;;;;;1.83;1.20;;;;;;;23.39;45.21;100453.22;5047575;28;20045;-79
2022/06/08 06:47:12;;;;;;;2.88;1.30;;;;;;;23.40;44.96;100454.06;5044607;28;20057;-79
2022/06/08 06:49:39;;;;;;;2.60;1.33;;;;;;;23.41;45.00;100444.69;5017343;28;20053;-79
2022/06/08 06:52:06;;;;;;;2.92;1.35;;;;;;;23.41;45.14;100448.34;5054906;28;20049;-78
2022/06/08 06:54:33;;;;;;;2.03;1.20;;;;;;;23.42;44.85;100454.75;5047555;28;20076;-78
2022/06/08 06:56:59;;;;;;;2.60;1.30;;;;;;;23.42;44.69;100450.06;5047143;28;20531;-83
2022/06/08 06:59:26;;;;;;;2.17;1.30;;;;;;;23.43;45.03;100446.22;5047529;28;20052;-79
2022/06/08 07:01:57;;;;;;;2.10;1.20;;;;;;;23.43;45.02;100451.78;5050790;28;20037;-78
2022/06/08 07:04:24;;;;;;;1.80;1.10;;;;;;;23.44;44.58;100445.19;5006002;28;20053;-78
2022/06/08 07:06:51;;;;;;;3.10;1.38;;;;;;;23.46;44.67;100445.00;5044179;28;20049;-79
2022/06/08 07:09:17;;;;;;;3.67;1.30;;;;;;;23.46;44.88;100443.09;5043481;28;20049;-81
2022/06/08 07:11:44;;;;;;;2.42;1.27;;;;;;;23.48;44.73;100445.63;5048810;28;20156;-80
2022/06/08 07:14:16;;;;;;;2.70;1.60;;;;;;;23.53;44.89;100437.66;5053204;28;20044;-78
2022/06/08 07:16:45;;;;;;;2.58;1.27;;;;;;;23.53;45.19;100437.66;5049913;28;20625;-78
2022/06/08 07:19:12;;;;;;;2.28;1.30;;;;;;;23.56;45.21;100437.22;5050111;28;20041;-79
2022/06/08 07:21:40;;;;;;;1.83;1.30;;;;;;;23.59;45.16;100436.00;5041737;28;20128;-77
2022/06/08 07:24:07;;;;;;;2.22;1.30;;;;;;;23.61;44.73;100429.19;5039387;28;20103;-77
2022/06/08 07:26:34;;;;;;;2.25;1.20;;;;;;;23.61;44.78;100422.78;5036404;28;20127;-78
2022/06/08 07:29:01;;;;;;;1.55;1.15;;;;;;;23.63;44.95;100437.31;5038187;28;20075;-77
2022/06/08 07:31:28;;;;;;;2.55;1.33;;;;;;;23.63;44.73;100429.00;5050113;28;20729;-78
2022/06/08 07:33:54;;;;;;;4.18;1.70;;;;;;;23.64;45.00;100426.00;5037726;28;20140;-79
2022/06/08 07:36:21;;;;;;;2.92;1.30;;;;;;;23.65;44.72;100427.72;5038357;28;20131;-79
2022/06/08 07:38:48;;;;;;;2.03;1.17;;;;;;;23.66;45.28;100423.91;5041938;28;20045;-79
2022/06/08 07:41:15;;;;;;;2.35;1.52;;;;;;;23.66;44.84;100418.38;5037079;28;20106;-79
2022/06/08 07:43:42;;;;;;;2.65;1.58;;;;;;;23.67;44.71;100420.09;5048447;28;20128;-79
2022/06/08 07:46:09;;;;;;;2.00;1.00;;;;;;;23.68;44.72;100413.50;5050684;28;20056;-78
2022/06/08 07:51:21;;;;;;;2.15;1.15;;;;;;;23.67;45.06;100420.09;5030673;28;20651;-79
2022/06/08 07:53:48;;;;;;;3.10;1.58;;;;;;;23.68;45.25;100410.72;5037203;28;20087;-78
2022/06/08 07:56:14;;;;;;;4.00;1.63;;;;;;;23.68;45.44;100416.25;5050324;28;20268;-78
2022/06/08 07:58:41;;;;;;;2.28;1.20;;;;;;;23.69;44.95;100406.03;5045968;28;20053;-78
2022/06/08 08:01:08;;;;;;;2.60;1.50;;;;;;;23.69;45.02;100404.13;5050017;28;20053;-78
2022/06/08 08:03:35;;;;;;;4.18;1.48;;;;;;;23.69;45.16;100400.50;5035855;28;20049;-78
2022/06/08 08:06:02;;;;;;;3.00;1.60;;;;;;;23.71;45.41;100398.38;5049819;28;20053;-78
2022/06/08 08:08:28;;;;;;;2.42;1.55;;;;;;;23.72;45.28;100400.09;5047881;28;20049;-78
2022/06/08 08:10:55;;;;;;;2.30;1.30;;;;;;;23.73;45.11;100399.88;5039959;28;20045;-78
2022/06/08 08:13:23;;;;;;;3.30;1.48;;;;;;;23.77;45.35;100395.66;5047247;28;20112;-78
2022/06/08 08:15:51;;;;;;;3.55;1.60;;;;;;;23.76;45.31;100385.63;5050012;28;20127;-77
2022/06/08 08:18:19;;;;;;;3.28;1.60;;;;;;;23.78;45.20;100399.31;5042405;28;20135;-78
2022/06/08 08:20:46;;;;;;;2.13;1.40;;;;;;;23.80;45.05;100388.88;5051030;28;20446;-78
2022/06/08 08:23:13;;;;;;;2.70;1.40;;;;;;;23.82;45.06;100378.41;5042408;28;20045;-78
2022/06/08 08:25:39;;;;;;;4.68;1.40;;;;;;;23.83;45.06;100389.31;5039196;28;20049;-78
2022/06/08 08:28:07;;;;;;;2.30;1.20;;;;;;;23.88;45.41;100391.50;5046664;28;20053;-78
2022/06/08 08:30:34;;;;;;;2.25;1.20;;;;;;;23.92;45.36;100378.94;5048517;28;20052;-78
2022/06/08 08:33:02;;;;;;;2.75;1.50;;;;;;;23.97;45.23;100384.72;5048143;28;20128;-78
2022/06/08 08:35:29;;;;;;;2.45;1.35;;;;;;;24.02;45.01;100375.81;5050481;28;20503;-78
2022/06/08 08:37:56;;;;;;;2.30;1.50;;;;;;;24.06;44.83;100374.34;5044532;28;20045;-78
2022/06/08 08:40:36;;;;;;;3.83;1.60;;;;;;;24.11;45.34;100378.25;5041243;28;20091;-77
2022/06/08 08:43:03;;;;;;;2.65;1.30;;;;;;;24.15;45.34;100378.69;5044378;28;20044;-78
2022/06/08 08:45:35;;;;;;;3.33;1.42;;;;;;;24.22;44.97;100374.94;5046011;28;20045;-78
2022/06/08 08:48:07;;;;;;;;;;;;;;;23.97;45.42;100379.19;5043515;28;20439;-78
2022/06/08 08:50:41;;;;;;;3.85;1.23;;;;;;;24.31;45.22;100366.44;5041331;28;19986;-78
2022/06/08 08:53:14;;;;;;;3.78;1.40;;;;;;;24.42;45.06;100369.53;5048568;28;20076;-78
2022/06/08 08:56:24;;;;;;;3.97;1.30;;;;;;;24.48;44.79;100357.59;5049735;28;20560;-78
2022/06/08 08:58:52;;;;;;;1.80;1.05;;;;;;;24.53;45.28;100357.88;5040578;28;20561;-77
2022/06/08 09:01:24;;;;;;;2.55;1.23;;;;;;;24.64;44.77;100361.94;5049097;28;20132;-77
2022/06/08 09:04:02;;;;;;;3.05;1.35;;;;;;;24.70;44.17;100366.69;5046032;28;20114;-78
2022/06/08 09:06:32;;;;;;;3.03;1.67;;;;;;;24.77;44.44;100363.97;5048844;28;20045;-78
2022/06/08 09:09:02;;;;;;;3.63;1.40;;;;;;;24.84;44.72;100368.47;5042901;28;20438;-78
2022/06/08 09:11:35;;;;;;;2.33;1.10;;;;;;;24.93;44.13;100355.28;5041369;28;20126;-78
2022/06/08 09:14:14;;;;;;;3.33;1.23;;;;;;;24.99;44.76;100352.53;5046085;28;20542;-78
2022/06/08 09:16:45;;;;;;;2.25;1.20;;;;;;;25.10;43.98;100358.56;5059280;28;20065;-77
2022/06/08 09:19:35;;;;;;;3.72;1.40;;;;;;;25.20;43.33;100356.25;5047169;28;20052;-78
2022/06/08 09:22:02;;;;;;;2.67;1.33;;;;;;;25.27;44.21;100346.00;5035363;28;20122;-78
2022/06/08 09:25:07;;;;;;;1.17;0.90;;;;;;;25.35;43.58;100341.09;5037123;28;20065;-78
2022/06/08 09:27:49;;;;;;;2.53;1.17;;;;;;;25.50;42.61;100335.34;5047613;28;20049;-78
2022/06/08 09:30:20;;;;;;;2.25;1.40;;;;;;;25.59;42.90;100341.59;5054763;28;20068;-77
2022/06/08 09:32:59;;;;;;;1.95;1.20;;;;;;;25.70;42.40;100329.81;5063885;28;20071;-77
2022/06/08 09:35:35;;;;;;;1.55;1.05;;;;;;;25.77;42.27;100322.34;5051635;28;20045;-77
2022/06/08 09:38:09;;;;;;;2.33;1.10;;;;;;;25.84;42.03;100317.63;5045850;28;20048;-78
2022/06/08 09:40:49;;;;;;;3.40;1.17;;;;;;;25.90;40.86;100313.13;5032079;28;20456;-77
2022/06/08 09:43:24;;;;;;;3.85;1.20;;;;;;;25.91;42.05;100320.41;5047529;28;20064;-78
2022/06/08 09:52:49;;;;;;;2.30;1.40;;;;;;;25.98;40.33;100302.63;5030511;28;20041;-78
2022/06/08 09:55:35;;;;;;;3.13;1.30;;;;;;;25.99;40.62;100307.13;5049738;28;20053;-77
2022/06/08 09:58:24;;;;;;;3.72;1.35;;;;;;;26.01;40.88;100315.28;5054325;28;20564;-77
2022/06/08 10:01:03;;;;;;;2.17;1.10;;;;;;;26.06;39.71;100307.97;5037474;28;20514;-77
2022/06/08 10:03:49;;;;;;;2.25;1.00;;;;;;;26.09;39.49;100310.34;5048716;28;20057;-77
2022/06/08 10:06:52;;;;;;;2.30;1.15;;;;;;;26.07;39.70;100297.72;5048998;28;20057;-77
2022/06/08 10:09:27;;;;;;;2.63;1.23;;;;;;;26.10;39.43;100303.72;5043320;28;20076;-77
2022/06/08 10:12:19;;;;;;;2.20;1.20;;;;;;;26.11;38.56;100293.41;4995052;28;20096;-77
2022/06/08 10:14:55;;;;;;;2.80;1.00;;;;;;;26.14;38.67;100298.53;5042523;28;20136;-78
2022/06/08 10:17:50;;;;;;;2.33;1.60;;;;;;;26.13;38.56;100299.63;5028617;28;20050;-78
2022/06/08 10:20:25;;;;;;;2.78;1.40;;;;;;;26.15;38.73;100292.75;5041220;28;20139;-78
2022/06/08 10:22:59;;;;;;;4.30;1.30;;;;;;;26.17;38.64;100294.47;5043719;28;20519;-78
2022/06/08 10:25:41;;;;;;;2.42;1.20;;;;;;;26.17;38.74;100295.34;5048277;28;20076;-77
2022/06/08 10:28:41;;;;;;;2.97;1.10;;;;;;;26.13;38.45;100302.41;5047115;28;20049;-77
2022/06/08 10:31:18;;;;;;;2.95;1.10;;;;;;;26.15;38.73;100303.03;5049930;28;20098;-77
2022/06/08 10:34:03;;;;;;;2.25;1.10;;;;;;;26.14;38.51;100299.41;5051805;28;20072;-77
2022/06/08 10:36:35;;;;;;;2.42;1.08;;;;;;;26.12;38.89;100303.47;5052407;28;20049;-77
2022/06/08 10:39:04;;;;;;;2.70;1.17;;;;;;;26.15;39.00;100312.25;5048404;28;20080;-76
2022/06/08 10:44:58;;;;;;;2.47;1.20;;;;;;;26.00;39.25;100336.69;5051047;28;20064;-77
2022/06/08 10:47:34;;;;;;;2.33;1.20;;;;;;;26.06;38.97;100346.94;4969957;28;20064;-77
2022/06/08 10:50:00;;;;;;;3.28;1.30;;;;;;;26.01;38.90;100363.44;4971034;28;20457;-77
2022/06/08 10:52:41;;;;;;;3.55;1.08;;;;;;;25.98;39.24;100352.72;4984555;28;21072;-77
2022/06/08 10:55:33;;;;;;;2.85;1.08;;;;;;;25.90;39.52;100364.06;4985898;28;20112;-79
2022/06/08 10:58:08;;;;;;;2.40;1.17;;;;;;;25.87;40.08;100349.72;4946011;28;20298;-78
2022/06/08 11:00:54;;;;;;;3.90;1.30;;;;;;;25.80;40.69;100343.28;4967170;28;20047;-79
2022/06/08 11:03:43;;;;;;;5.20;1.73;;;;;;;25.67;41.05;100353.38;4960423;28;20450;-86
2022/06/08 11:06:46;;;;;;;4.63;1.30;;;;;;;25.59;41.75;100330.47;4954965;28;20057;-89
2022/06/08 11:09:20;;;;;;;4.22;1.45;;;;;;;25.51;42.35;100333.44;4963676;28;20540;-84
2022/06/08 11:11:50;;;;;;;2.72;1.20;;;;;;;25.39;42.10;100335.97;4961498;28;20109;-82
2022/06/08 11:14:28;;;;;;;3.22;1.23;;;;;;;25.32;41.90;100343.44;4968608;28;20632;-81
2022/06/08 11:17:00;;;;;;;3.78;1.38;;;;;;;25.20;42.96;100343.19;4969797;28;20163;-81
2022/06/08 11:19:28;;;;;;;;;;;;;;;24.84;42.95;100362.06;5039571;28;20395;-82
2022/06/08 11:22:05;;;;;;;3.90;1.42;;;;;;;24.99;42.61;100365.56;5036301;28;19925;-86
2022/06/08 11:24:49;;;;;;;3.10;1.60;;;;;;;24.89;42.30;100357.59;5042255;28;20049;-86
2022/06/08 11:27:37;;;;;;;4.47;1.77;;;;;;;24.74;43.07;100356.88;5043541;28;20041;-85
2022/06/08 11:30:23;;;;;;;2.92;1.38;;;;;;;24.60;43.83;100357.88;5050369;28;20114;-83
2022/06/08 11:32:53;;;;;;;4.00;1.50;;;;;;;24.52;43.98;100356.16;5042373;28;20049;-83
2022/06/08 11:35:46;;;;;;;3.30;1.65;;;;;;;24.40;44.87;100351.34;5049695;28;20056;-83
2022/06/08 11:38:22;;;;;;;4.55;1.60;;;;;;;24.32;45.91;100338.50;5046631;28;20322;-84
2022/06/08 11:40:49;;;;;;;4.22;1.50;;;;;;;24.22;45.02;100332.47;5041364;28;20135;-83
2022/06/08 11:43:33;;;;;;;3.67;1.50;;;;;;;24.18;46.60;100332.00;5049583;28;20126;-81
2022/06/08 11:46:01;;;;;;;3.55;1.60;;;;;;;24.10;46.09;100328.53;5048308;28;20050;-81
2022/06/08 11:48:42;;;;;;;5.80;1.90;;;;;;;24.08;46.33;100333.41;5049963;28;20053;-81
2022/06/08 11:51:09;;;;;;;4.30;1.73;;;;;;;24.01;46.14;100324.19;5049877;28;20087;-81
2022/06/08 11:53:40;;;;;;;3.60;1.70;;;;;;;24.02;46.42;100325.91;5050036;28;20048;-81
2022/06/08 11:56:18;;;;;;;3.03;1.50;;;;;;;23.95;46.16;100325.88;5047690;28;20115;-81
2022/06/08 11:58:49;;;;;;;3.10;1.48;;;;;;;23.94;46.32;100335.25;5042648;28;20045;-81
2022/06/08 12:01:22;;;;;;;3.60;1.40;;;;;;;23.92;46.24;100325.41;5033488;28;20050;-82
2022/06/08 12:03:57;;;;;;;2.33;1.13;;;;;;;23.87;47.23;100331.56;5043828;28;20547;-81
2022/06/08 12:06:35;;;;;;;3.22;1.58;;;;;;;23.85;47.25;100331.75;5038438;28;20049;-81
2022/06/08 12:09:06;;;;;;;4.05;1.30;;;;;;;23.80;47.07;100331.47;5041911;28;20072;-81